Time;durP1;ratioP1;P1;durP2;ratioP2;P2;SDS_P1;SDS_P2;PMS_P1;PMS_P2;Temp;Humidity;BMP_temperature;BMP_pressure;BME280_temperature;BME280_humidity;BME280_pressure;Samples;Min_cycle;Max_cycle;Signal;HPM_P1;HPM_P2
2023/05/28 00:00:23;;;;;;;6.10;3.80;;;;;;;;;;5075830;28;20196;-72
2023/05/28 00:02:50;;;;;;;7.57;3.70;;;;;;;;;;5079223;28;20294;-71
2023/05/28 00:05:17;;;;;;;7.67;3.63;;;;;;;;;;5079173;28;20949;-71
2023/05/28 00:07:43;;;;;;;6.93;3.90;;;;;;;;;;5072667;28;20259;-71
2023/05/28 00:10:09;;;;;;;9.73;4.00;;;;;;;;;;5074606;28;20187;-72
2023/05/28 00:12:35;;;;;;;8.83;4.23;;;;;;;;;;5084972;28;20686;-72
2023/05/28 00:15:02;;;;;;;8.37;3.80;;;;;;;;;;5083889;28;20300;-72
2023/05/28 00:17:30;;;;;;;5.57;3.60;;;;;;;;;;5098596;28;20194;-72
2023/05/28 00:19:56;;;;;;;5.90;3.67;;;;;;;;;;5096440;28;20219;-72
2023/05/28 00:22:22;;;;;;;9.10;4.10;;;;;;;;;;5082073;28;20834;-72
2023/05/28 00:24:48;;;;;;;8.10;3.53;;;;;;;;;;5071380;28;20172;-72
2023/05/28 00:27:14;;;;;;;8.03;4.37;;;;;;;;;;5079717;28;20259;-72
2023/05/28 00:29:41;;;;;;;10.70;4.30;;;;;;;;;;5100476;28;20272;-71
2023/05/28 00:32:07;;;;;;;7.37;3.90;;;;;;;;;;5085212;28;20591;-72
2023/05/28 00:34:33;;;;;;;7.10;3.87;;;;;;;;;;5085371;28;20191;-72
2023/05/28 00:36:59;;;;;;;6.80;3.93;;;;;;;;;;5082104;28;20180;-72
2023/05/28 00:39:25;;;;;;;10.17;4.10;;;;;;;;;;5085122;28;20197;-72
2023/05/28 00:42:04;;;;;;;12.00;4.20;;;;;;;;;;5073355;28;20303;-71
2023/05/28 00:44:31;;;;;;;6.77;3.80;;;;;;;;;;5098012;28;20726;-71
2023/05/28 00:46:57;;;;;;;6.67;3.83;;;;;;;;;;5090101;28;20230;-71
2023/05/28 00:49:24;;;;;;;6.60;3.70;;;;;;;;;;5078308;28;20203;-72
2023/05/28 00:51:51;;;;;;;6.00;3.70;;;;;;;;;;5084134;28;20311;-72
2023/05/28 00:54:18;;;;;;;8.53;3.93;;;;;;;;;;5087352;28;20227;-72
2023/05/28 00:56:46;;;;;;;7.80;4.30;;;;;;;;;;5078043;28;20268;-71
2023/05/28 00:59:12;;;;;;;6.40;3.83;;;;;;;;;;5095951;28;20207;-71
2023/05/28 01:01:39;;;;;;;7.17;3.70;;;;;;;;;;5082996;28;20550;-71
2023/05/28 01:04:05;;;;;;;7.80;4.00;;;;;;;;;;5079641;28;20230;-71
2023/05/28 01:06:32;;;;;;;7.63;3.60;;;;;;;;;;5081709;28;20184;-71
2023/05/28 01:08:58;;;;;;;8.27;4.20;;;;;;;;;;5081217;28;20279;-71
2023/05/28 01:11:25;;;;;;;5.67;3.90;;;;;;;;;;5076290;28;20173;-71
2023/05/28 01:13:52;;;;;;;7.47;3.90;;;;;;;;;;5083338;28;20695;-71
2023/05/28 01:16:18;;;;;;;4.80;3.57;;;;;;;;;;5085975;28;20591;-71
2023/05/28 01:18:46;;;;;;;4.63;3.80;;;;;;;;;;5077619;28;20215;-71
2023/05/28 01:21:13;;;;;;;5.87;3.80;;;;;;;;;;5088116;28;20219;-71
2023/05/28 01:23:45;;;;;;;7.00;3.77;;;;;;;;;;5090028;28;20164;-71
2023/05/28 01:26:12;;;;;;;7.47;4.00;;;;;;;;;;5079603;28;20590;-71
2023/05/28 01:28:44;;;;;;;8.00;3.87;;;;;;;;;;5086502;28;20204;-71
2023/05/28 01:31:14;;;;;;;8.67;4.10;;;;;;;;;;5078960;28;20946;-71
2023/05/28 01:33:44;;;;;;;9.20;4.00;;;;;;;;;;5071719;28;20257;-71
2023/05/28 01:36:32;;;;;;;5.80;3.53;;;;;;;;;;5072219;28;20540;-71
2023/05/28 01:39:02;;;;;;;6.67;3.57;;;;;;;;;;5060869;28;20625;-72
2023/05/28 01:41:29;;;;;;;5.90;3.60;;;;;;;;;;5076652;28;20292;-71
2023/05/28 01:43:56;;;;;;;10.27;4.30;;;;;;;;;;5091875;28;20172;-71
2023/05/28 01:46:22;;;;;;;7.60;3.73;;;;;;;;;;5081093;28;20187;-72
2023/05/28 01:48:49;;;;;;;5.70;3.77;;;;;;;;;;5077624;28;20200;-71
2023/05/28 01:51:17;;;;;;;5.20;3.60;;;;;;;;;;5078279;28;20180;-71
2023/05/28 01:53:43;;;;;;;6.63;3.80;;;;;;;;;;5084114;28;20733;-72
2023/05/28 01:56:10;;;;;;;5.80;3.90;;;;;;;;;;5085986;28;20184;-72
2023/05/28 01:58:36;;;;;;;7.13;3.60;;;;;;;;;;5078780;28;20192;-71
2023/05/28 02:01:02;;;;;;;5.47;3.47;;;;;;;;;;5080431;28;20752;-71
2023/05/28 02:03:28;;;;;;;7.83;3.77;;;;;;;;;;5080339;28;20188;-71
2023/05/28 02:05:54;;;;;;;5.60;3.93;;;;;;;;;;5085908;28;20177;-71
2023/05/28 02:08:20;;;;;;;6.20;3.60;;;;;;;;;;5077410;28;20425;-71
2023/05/28 02:10:47;;;;;;;7.23;3.40;;;;;;;;;;5083010;28;20648;-71
2023/05/28 02:13:13;;;;;;;6.07;3.63;;;;;;;;;;5075334;28;20221;-72
2023/05/28 02:15:40;;;;;;;5.80;3.57;;;;;;;;;;5079832;28;20250;-72
2023/05/28 02:18:10;;;;;;;4.70;3.37;;;;;;;;;;5084784;28;20222;-71
2023/05/28 02:20:36;;;;;;;5.70;3.70;;;;;;;;;;5105516;28;20252;-73
2023/05/28 02:23:05;;;;;;;7.60;3.63;;;;;;;;;;5084301;28;20628;-71
2023/05/28 02:25:31;;;;;;;6.17;3.67;;;;;;;;;;5095143;28;20664;-71
2023/05/28 02:27:59;;;;;;;8.87;3.83;;;;;;;;;;5091304;28;20285;-71
2023/05/28 02:30:28;;;;;;;6.97;3.80;;;;;;;;;;5078499;28;20181;-71
2023/05/28 02:32:55;;;;;;;7.20;3.70;;;;;;;;;;5082957;28;20188;-71
2023/05/28 02:35:24;;;;;;;5.10;3.60;;;;;;;;;;5055728;28;20640;-71
2023/05/28 02:37:50;;;;;;;6.30;3.80;;;;;;;;;;5088437;28;20687;-71
2023/05/28 02:40:17;;;;;;;5.77;3.43;;;;;;;;;;5083175;28;20255;-71
2023/05/28 02:42:44;;;;;;;6.03;3.90;;;;;;;;;;5081285;28;20267;-71
2023/05/28 02:45:10;;;;;;;7.07;3.97;;;;;;;;;;5079576;28;20191;-71
2023/05/28 02:47:37;;;;;;;6.80;3.60;;;;;;;;;;5084720;28;20225;-71
2023/05/28 02:50:04;;;;;;;7.83;3.93;;;;;;;;;;5087222;28;20205;-71
2023/05/28 02:52:49;;;;;;;8.27;4.10;;;;;;;;;;5065944;28;20176;-71
2023/05/28 02:55:16;;;;;;;6.33;4.03;;;;;;;;;;5095626;28;20203;-71
2023/05/28 02:57:45;;;;;;;5.23;4.10;;;;;;;;;;5083887;28;20211;-71
2023/05/28 03:00:15;;;;;;;6.60;4.40;;;;;;;;;;5103681;28;20216;-71
2023/05/28 03:02:43;;;;;;;7.53;4.40;;;;;;;;;;5076504;28;20227;-71
2023/05/28 03:05:12;;;;;;;9.20;4.17;;;;;;;;;;5084160;28;20180;-71
2023/05/28 03:07:39;;;;;;;7.30;4.17;;;;;;;;;;5080257;28;20204;-71
2023/05/28 03:10:08;;;;;;;7.40;4.27;;;;;;;;;;5080329;28;20173;-71
2023/05/28 03:12:38;;;;;;;7.00;4.23;;;;;;;;;;5089928;28;20269;-71
2023/05/28 03:15:05;;;;;;;7.10;4.20;;;;;;;;;;5094414;28;20237;-71
2023/05/28 03:17:32;;;;;;;7.53;5.00;;;;;;;;;;5071099;28;20192;-71
2023/05/28 03:19:59;;;;;;;8.53;5.07;;;;;;;;;;5084143;28;20182;-71
2023/05/28 03:22:26;;;;;;;8.50;5.17;;;;;;;;;;5089680;28;20259;-71
2023/05/28 03:24:52;;;;;;;8.20;5.17;;;;;;;;;;5084192;28;20177;-71
2023/05/28 03:27:24;;;;;;;7.83;5.23;;;;;;;;;;5090271;28;20187;-71
2023/05/28 03:29:53;;;;;;;9.13;4.73;;;;;;;;;;5081581;28;20173;-71
2023/05/28 03:32:28;;;;;;;9.03;5.37;;;;;;;;;;5055402;28;20180;-71
2023/05/28 03:34:54;;;;;;;7.80;5.17;;;;;;;;;;5077472;28;20258;-71
2023/05/28 03:37:26;;;;;;;8.80;5.03;;;;;;;;;;5089426;28;20188;-71
2023/05/28 03:39:53;;;;;;;9.83;5.07;;;;;;;;;;5085567;28;20255;-71
2023/05/28 03:42:20;;;;;;;9.50;5.20;;;;;;;;;;5079996;28;20191;-71
2023/05/28 03:44:50;;;;;;;6.30;4.77;;;;;;;;;;5090169;28;20334;-71
2023/05/28 03:47:17;;;;;;;8.87;5.37;;;;;;;;;;5072591;28;20177;-71
2023/05/28 03:49:45;;;;;;;7.87;5.00;;;;;;;;;;5088058;28;20183;-71
2023/05/28 03:52:12;;;;;;;8.00;4.90;;;;;;;;;;5077002;28;20180;-71
2023/05/28 03:54:47;;;;;;;10.57;4.87;;;;;;;;;;5091410;28;20289;-71
2023/05/28 03:57:14;;;;;;;7.97;4.90;;;;;;;;;;5090992;28;20177;-71
2023/05/28 03:59:41;;;;;;;7.83;4.63;;;;;;;;;;5087454;28;20286;-71
2023/05/28 04:02:07;;;;;;;7.93;4.50;;;;;;;;;;5081913;28;20208;-71
2023/05/28 04:04:34;;;;;;;6.23;4.70;;;;;;;;;;5095051;28;20215;-71
2023/05/28 04:07:01;;;;;;;10.77;5.33;;;;;;;;;;5083892;28;20550;-71
2023/05/28 04:09:27;;;;;;;11.83;5.50;;;;;;;;;;5091094;28;20205;-71
2023/05/28 04:11:54;;;;;;;5.60;4.50;;;;;;;;;;5093282;28;20275;-71
2023/05/28 04:14:26;;;;;;;7.97;5.00;;;;;;;;;;5103343;28;20183;-72
2023/05/28 04:16:53;;;;;;;7.27;4.73;;;;;;;;;;5083772;28;20184;-70
2023/05/28 04:19:20;;;;;;;7.47;5.17;;;;;;;;;;5102769;28;20196;-71
2023/05/28 04:21:47;;;;;;;7.20;4.87;;;;;;;;;;5082326;28;20269;-71
2023/05/28 04:24:17;;;;;;;7.20;4.50;;;;;;;;;;5104306;28;20176;-71
2023/05/28 04:26:44;;;;;;;10.50;5.47;;;;;;;;;;5077203;28;20177;-71
2023/05/28 04:29:12;;;;;;;8.23;4.37;;;;;;;;;;5091208;28;20287;-70
2023/05/28 04:31:40;;;;;;;7.53;4.70;;;;;;;;;;5089193;28;20256;-70
2023/05/28 04:34:09;;;;;;;7.87;4.70;;;;;;;;;;5098428;28;20177;-71
2023/05/28 04:36:41;;;;;;;10.13;5.17;;;;;;;;;;5076213;28;20185;-72
2023/05/28 04:39:08;;;;;;;8.13;4.83;;;;;;;;;;5085513;28;20268;-71
2023/05/28 04:41:43;;;;;;;6.50;4.40;;;;;;;;;;5080473;28;20208;-71
2023/05/28 04:44:15;;;;;;;6.77;4.60;;;;;;;;;;5084653;28;20184;-71
2023/05/28 04:46:43;;;;;;;7.97;5.00;;;;;;;;;;5075193;28;20604;-71
2023/05/28 04:49:13;;;;;;;6.63;4.43;;;;;;;;;;5070453;28;20249;-71
2023/05/28 04:51:41;;;;;;;8.73;5.20;;;;;;;;;;5082111;28;20337;-71
2023/05/28 04:54:08;;;;;;;8.30;5.13;;;;;;;;;;5082617;28;20255;-71
2023/05/28 04:56:35;;;;;;;7.30;4.50;;;;;;;;;;5076215;28;20177;-71
2023/05/28 04:59:04;;;;;;;6.90;4.60;;;;;;;;;;5090172;28;20207;-71
2023/05/28 05:01:35;;;;;;;8.70;4.50;;;;;;;;;;5088412;28;20204;-71
2023/05/28 05:04:05;;;;;;;6.73;4.80;;;;;;;;;;5083329;28;20205;-71
2023/05/28 05:06:36;;;;;;;5.53;4.43;;;;;;;;;;5091311;28;20176;-71
2023/05/28 05:09:04;;;;;;;8.00;4.57;;;;;;;;;;5090301;28;20595;-71
2023/05/28 05:11:35;;;;;;;6.83;4.40;;;;;;;;;;5102065;28;20267;-71
2023/05/28 05:14:07;;;;;;;7.60;5.00;;;;;;;;;;5081412;28;20188;-71
2023/05/28 05:16:33;;;;;;;6.63;4.93;;;;;;;;;;5088424;28;20237;-71
2023/05/28 05:19:00;;;;;;;7.60;4.90;;;;;;;;;;5078442;28;20881;-71
2023/05/28 05:21:26;;;;;;;7.53;4.33;;;;;;;;;;5077661;28;20200;-71
2023/05/28 05:23:53;;;;;;;6.83;4.70;;;;;;;;;;5079388;28;20187;-71
2023/05/28 05:26:21;;;;;;;9.13;5.00;;;;;;;;;;5095473;28;20180;-71
2023/05/28 05:28:48;;;;;;;6.07;4.30;;;;;;;;;;5076448;28;20212;-71
2023/05/28 05:31:16;;;;;;;7.60;5.13;;;;;;;;;;5082346;28;20217;-71
2023/05/28 05:33:45;;;;;;;6.17;4.63;;;;;;;;;;5080351;28;20188;-71
2023/05/28 05:36:27;;;;;;;7.53;4.80;;;;;;;;;;5089769;28;20187;-71
2023/05/28 05:39:08;;;;;;;6.33;4.00;;;;;;;;;;5070442;28;20212;-71
2023/05/28 05:42:01;;;;;;;6.73;3.97;;;;;;;;;;5062761;28;20237;-71
2023/05/28 05:44:32;;;;;;;5.17;3.33;;;;;;;;;;5076471;28;20188;-71
2023/05/28 05:46:59;;;;;;;6.20;4.30;;;;;;;;;;5077787;28;20659;-71
2023/05/28 05:49:26;;;;;;;6.97;4.20;;;;;;;;;;5082959;28;20215;-71
2023/05/28 05:51:53;;;;;;;7.00;4.40;;;;;;;;;;5091567;28;20181;-71
2023/05/28 05:54:20;;;;;;;6.67;4.40;;;;;;;;;;5080224;28;20578;-71
2023/05/28 05:56:48;;;;;;;6.87;4.20;;;;;;;;;;5080854;28;20603;-72
2023/05/28 05:59:18;;;;;;;7.50;4.00;;;;;;;;;;5061201;28;20681;-73
2023/05/28 06:01:52;;;;;;;17.30;4.70;;;;;;;;;;5074334;28;20208;-74
2023/05/28 06:04:20;;;;;;;6.40;3.73;;;;;;;;;;5081349;28;20238;-71
2023/05/28 06:07:06;;;;;;;10.00;3.87;;;;;;;;;;5083701;28;20176;-71
2023/05/28 06:09:53;;;;;;;7.23;4.47;;;;;;;;;;5071098;28;20180;-71
2023/05/28 06:12:24;;;;;;;6.13;3.60;;;;;;;;;;5081853;28;20812;-71
2023/05/28 06:14:52;;;;;;;6.60;4.30;;;;;;;;;;5097893;28;20555;-71
2023/05/28 06:17:20;;;;;;;8.33;4.20;;;;;;;;;;5076970;28;20208;-71
2023/05/28 06:19:49;;;;;;;7.57;4.70;;;;;;;;;;5086342;28;20242;-71
2023/05/28 06:22:18;;;;;;;7.73;4.50;;;;;;;;;;5081819;28;20205;-72
2023/05/28 06:24:49;;;;;;;6.13;4.03;;;;;;;;;;5098448;27;20239;-72
2023/05/28 06:27:16;;;;;;;6.87;4.10;;;;;;;;;;5072335;28;20185;-71
2023/05/28 06:29:43;;;;;;;8.33;4.30;;;;;;;;;;5087139;28;20267;-71
2023/05/28 06:32:11;;;;;;;7.60;4.20;;;;;;;;;;5086633;28;20234;-70
2023/05/28 06:34:38;;;;;;;6.73;4.00;;;;;;;;;;5094233;28;20190;-70
2023/05/28 06:37:05;;;;;;;6.37;4.13;;;;;;;;;;5082061;28;20200;-70
2023/05/28 06:39:34;;;;;;;8.87;5.20;;;;;;;;;;5068092;28;20211;-70
2023/05/28 06:42:13;;;;;;;7.67;5.23;;;;;;;;;;5080555;28;20212;-70
2023/05/28 06:44:50;;;;;;;7.37;4.97;;;;;;;;;;5064747;28;20176;-71
2023/05/28 06:47:19;;;;;;;9.10;5.43;;;;;;;;;;5081433;28;20184;-71
2023/05/28 06:49:49;;;;;;;9.83;5.50;;;;;;;;;;5095706;27;20184;-70
2023/05/28 06:52:20;;;;;;;7.37;4.93;;;;;;;;;;5080213;28;20667;-71
2023/05/28 06:54:48;;;;;;;9.57;5.43;;;;;;;;;;5080385;28;20260;-73
2023/05/28 06:57:18;;;;;;;6.23;5.00;;;;;;;;;;5088025;28;20177;-71
2023/05/28 07:00:16;;;;;;;9.50;4.83;;;;;;;;;;5082182;28;20188;-71
2023/05/28 07:03:05;;;;;;;7.00;4.80;;;;;;;;;;5088941;28;20192;-70
2023/05/28 07:05:55;;;;;;;7.10;4.57;;;;;;;;;;5083713;28;20650;-70
2023/05/28 07:08:40;;;;;;;6.60;4.40;;;;;;;;;;5092560;28;21020;-70
2023/05/28 07:11:26;;;;;;;8.00;4.13;;;;;;;;;;5071647;28;20643;-73
2023/05/28 07:13:54;;;;;;;6.93;4.30;;;;;;;;;;5088631;28;20190;-71
2023/05/28 07:16:23;;;;;;;6.60;4.10;;;;;;;;;;5083694;28;20509;-71
2023/05/28 07:18:52;;;;;;;6.70;4.00;;;;;;;;;;5090493;28;20756;-71
2023/05/28 07:21:19;;;;;;;7.57;3.83;;;;;;;;;;5085601;28;20573;-71
2023/05/28 07:23:47;;;;;;;6.33;4.00;;;;;;;;;;5084517;28;20180;-71
2023/05/28 07:26:14;;;;;;;6.60;3.90;;;;;;;;;;5085150;28;20793;-71
2023/05/28 07:28:43;;;;;;;6.53;4.03;;;;;;;;;;5084591;28;20757;-71
2023/05/28 07:31:13;;;;;;;6.93;4.20;;;;;;;;;;5075862;28;20981;-71
2023/05/28 07:33:40;;;;;;;6.40;4.03;;;;;;;;;;5073863;28;20184;-71
2023/05/28 07:36:06;;;;;;;6.10;4.00;;;;;;;;;;5085235;28;20180;-71
2023/05/28 07:38:35;;;;;;;6.53;4.23;;;;;;;;;;5070581;28;20664;-71
2023/05/28 07:41:02;;;;;;;7.53;4.37;;;;;;;;;;5069517;28;20205;-71
2023/05/28 07:43:41;;;;;;;7.50;4.70;;;;;;;;;;5085442;28;20183;-74
2023/05/28 07:46:20;;;;;;;6.30;4.50;;;;;;;;;;5091570;28;20222;-73
2023/05/28 07:48:50;;;;;;;6.63;4.00;;;;;;;;;;5097305;28;20552;-73
2023/05/28 07:51:27;;;;;;;6.70;4.17;;;;;;;;;;5088428;28;20229;-73
2023/05/28 07:54:14;;;;;;;6.10;4.13;;;;;;;;;;5071197;28;20184;-75
2023/05/28 07:56:45;;;;;;;6.83;3.70;;;;;;;;;;5060362;28;21033;-73
2023/05/28 07:59:21;;;;;;;6.60;4.40;;;;;;;;;;5097672;28;21263;-73
2023/05/28 08:01:48;;;;;;;6.83;3.87;;;;;;;;;;5089317;28;20743;-73
2023/05/28 08:04:15;;;;;;;10.37;4.73;;;;;;;;;;5090920;28;20211;-73
2023/05/28 08:06:42;;;;;;;6.53;4.20;;;;;;;;;;5091617;28;20229;-73
2023/05/28 08:09:15;;;;;;;7.13;4.30;;;;;;;;;;5091501;28;20271;-73
2023/05/28 08:11:42;;;;;;;7.50;4.33;;;;;;;;;;5078075;28;20247;-73
2023/05/28 08:14:08;;;;;;;6.73;4.47;;;;;;;;;;5089786;28;20181;-73
2023/05/28 08:16:37;;;;;;;7.60;4.60;;;;;;;;;;5093657;28;20192;-73
2023/05/28 08:19:20;;;;;;;6.53;4.70;;;;;;;;;;5070990;28;20550;-73
2023/05/28 08:21:47;;;;;;;7.67;4.43;;;;;;;;;;5085247;28;20200;-73
2023/05/28 08:24:17;;;;;;;7.83;4.70;;;;;;;;;;5090527;28;20248;-73
2023/05/28 08:26:43;;;;;;;6.80;4.20;;;;;;;;;;5081677;28;20201;-73
2023/05/28 08:29:13;;;;;;;6.67;4.23;;;;;;;;;;5080102;28;20205;-73
2023/05/28 08:31:47;;;;;;;8.57;4.83;;;;;;;;;;5080469;28;20193;-73
2023/05/28 08:34:26;;;;;;;7.60;4.30;;;;;;;;;;5083469;28;20190;-73
2023/05/28 08:37:02;;;;;;;7.97;4.80;;;;;;;;;;5079192;28;20195;-73
2023/05/28 08:39:47;;;;;;;10.83;4.97;;;;;;;;;;5094615;28;20243;-73
2023/05/28 08:42:14;;;;;;;6.97;4.40;;;;;;;;;;5093658;28;20589;-73
2023/05/28 08:44:41;;;;;;;7.33;4.80;;;;;;;;;;5081306;28;20596;-73
2023/05/28 08:47:08;;;;;;;9.60;4.43;;;;;;;;;;5105937;28;20556;-73
2023/05/28 08:49:55;;;;;;;7.50;4.40;;;;;;;;;;5086595;28;20643;-73
2023/05/28 08:52:31;;;;;;;7.30;4.60;;;;;;;;;;5099494;28;20262;-73
2023/05/28 08:55:01;;;;;;;8.10;4.47;;;;;;;;;;5078019;28;20671;-74
2023/05/28 08:57:31;;;;;;;6.87;4.30;;;;;;;;;;5094679;28;20200;-73
2023/05/28 09:00:12;;;;;;;6.40;4.30;;;;;;;;;;5083805;28;20208;-73
2023/05/28 09:03:08;;;;;;;7.60;4.57;;;;;;;;;;5077752;28;20205;-73
2023/05/28 09:05:39;;;;;;;6.70;4.57;;;;;;;;;;5090880;28;20264;-73
2023/05/28 09:08:18;;;;;;;9.43;4.40;;;;;;;;;;5067277;28;20204;-73
2023/05/28 09:10:44;;;;;;;8.30;4.40;;;;;;;;;;5084527;28;20184;-74
2023/05/28 09:13:15;;;;;;;9.30;5.00;;;;;;;;;;5084123;28;20249;-76
2023/05/28 09:15:42;;;;;;;7.63;4.50;;;;;;;;;;5084262;28;20181;-73
2023/05/28 09:18:10;;;;;;;6.63;4.23;;;;;;;;;;5087202;28;20709;-73
2023/05/28 09:20:37;;;;;;;7.80;4.50;;;;;;;;;;5094918;28;20302;-73
2023/05/28 09:23:06;;;;;;;7.37;4.23;;;;;;;;;;5085697;28;20612;-73
2023/05/28 09:26:08;;;;;;;6.57;4.60;;;;;;;;;;5069178;28;20199;-73
2023/05/28 09:28:43;;;;;;;9.03;4.37;;;;;;;;;;5081999;28;20250;-73
2023/05/28 09:31:09;;;;;;;6.27;4.20;;;;;;;;;;5082298;28;20189;-73
2023/05/28 09:33:42;;;;;;;7.57;4.37;;;;;;;;;;5079120;28;20633;-74
2023/05/28 09:36:11;;;;;;;8.90;4.73;;;;;;;;;;5082638;28;20226;-73
2023/05/28 09:38:41;;;;;;;7.43;4.40;;;;;;;;;;5099124;28;20675;-73
2023/05/28 09:41:33;;;;;;;5.93;4.17;;;;;;;;;;5075711;28;20334;-73
2023/05/28 09:44:01;;;;;;;6.33;4.40;;;;;;;;;;5080755;28;20264;-73
2023/05/28 09:46:28;;;;;;;5.90;4.40;;;;;;;;;;5082905;28;20175;-73
2023/05/28 09:48:54;;;;;;;7.97;4.43;;;;;;;;;;5105468;28;20192;-73
2023/05/28 09:51:23;;;;;;;7.30;4.50;;;;;;;;;;5079480;28;20643;-73
2023/05/28 09:53:50;;;;;;;7.37;4.33;;;;;;;;;;5096276;28;20181;-73
2023/05/28 09:56:20;;;;;;;7.00;4.57;;;;;;;;;;5074045;28;20193;-73
2023/05/28 09:58:51;;;;;;;6.87;4.60;;;;;;;;;;5086157;28;20707;-73
2023/05/28 10:01:23;;;;;;;8.80;4.57;;;;;;;;;;5082294;28;20667;-73
2023/05/28 10:03:54;;;;;;;7.03;4.57;;;;;;;;;;5091870;28;20871;-73
2023/05/28 10:06:24;;;;;;;11.10;4.60;;;;;;;;;;5080699;28;20692;-73
2023/05/28 10:08:54;;;;;;;7.50;4.10;;;;;;;;;;5090452;28;20341;-73
2023/05/28 10:11:26;;;;;;;5.43;4.33;;;;;;;;;;5088897;28;20744;-73
2023/05/28 10:13:54;;;;;;;6.90;4.73;;;;;;;;;;5089667;28;20191;-73
2023/05/28 10:16:25;;;;;;;6.37;4.40;;;;;;;;;;5082444;28;20290;-73
2023/05/28 10:18:56;;;;;;;6.93;4.43;;;;;;;;;;5092610;28;20208;-73
2023/05/28 10:21:24;;;;;;;8.10;4.60;;;;;;;;;;5088935;28;20701;-73
2023/05/28 10:23:51;;;;;;;5.97;4.53;;;;;;;;;;5074477;28;20200;-73
2023/05/28 10:26:18;;;;;;;8.43;4.53;;;;;;;;;;5080156;28;20181;-73
2023/05/28 10:28:54;;;;;;;7.47;4.70;;;;;;;;;;5076201;28;20212;-74
2023/05/28 10:31:22;;;;;;;7.23;4.40;;;;;;;;;;5084674;28;20188;-73
2023/05/28 10:33:52;;;;;;;6.27;4.40;;;;;;;;;;5075761;28;20380;-74
2023/05/28 10:36:19;;;;;;;6.30;4.50;;;;;;;;;;5094596;28;20204;-74
2023/05/28 10:39:01;;;;;;;7.87;4.37;;;;;;;;;;5088622;28;20205;-74
2023/05/28 10:41:32;;;;;;;6.23;4.40;;;;;;;;;;5077955;28;20212;-74
2023/05/28 10:44:07;;;;;;;6.17;4.13;;;;;;;;;;5092127;28;20177;-75
2023/05/28 10:46:40;;;;;;;7.47;4.30;;;;;;;;;;5085095;28;20271;-75
2023/05/28 10:49:10;;;;;;;7.93;4.23;;;;;;;;;;5083402;28;20196;-73
2023/05/28 10:51:46;;;;;;;6.50;4.03;;;;;;;;;;5072664;28;20219;-74
2023/05/28 10:54:14;;;;;;;9.17;4.40;;;;;;;;;;5074562;28;20300;-74
2023/05/28 10:57:00;;;;;;;6.80;4.30;;;;;;;;;;5075626;28;20558;-74
2023/05/28 10:59:46;;;;;;;5.00;4.07;;;;;;;;;;5080656;28;20265;-74
2023/05/28 11:02:19;;;;;;;7.00;4.27;;;;;;;;;;5073048;28;20556;-75
2023/05/28 11:04:50;;;;;;;6.67;4.70;;;;;;;;;;5075652;28;20198;-75
2023/05/28 11:07:17;;;;;;;5.80;4.10;;;;;;;;;;5084024;28;20539;-76
2023/05/28 11:09:48;;;;;;;7.50;4.90;;;;;;;;;;5082247;28;20203;-74
2023/05/28 11:12:20;;;;;;;7.00;4.50;;;;;;;;;;5077839;28;20529;-74
2023/05/28 11:14:48;;;;;;;7.17;4.30;;;;;;;;;;5084595;28;20176;-76
2023/05/28 11:17:17;;;;;;;8.87;4.60;;;;;;;;;;5079947;28;20215;-74
2023/05/28 11:19:45;;;;;;;5.90;4.30;;;;;;;;;;5087682;28;20364;-74
2023/05/28 11:22:16;;;;;;;8.23;4.77;;;;;;;;;;5081880;28;20212;-73
2023/05/28 11:24:58;;;;;;;8.30;4.43;;;;;;;;;;5081595;28;20269;-73
2023/05/28 11:27:28;;;;;;;5.97;4.20;;;;;;;;;;5092287;28;20255;-73
2023/05/28 11:29:59;;;;;;;6.23;4.40;;;;;;;;;;5105688;28;20189;-73
2023/05/28 11:32:27;;;;;;;7.13;4.50;;;;;;;;;;5089828;28;20261;-73
2023/05/28 11:34:55;;;;;;;5.67;4.17;;;;;;;;;;5089907;28;20194;-73
2023/05/28 11:37:41;;;;;;;6.47;4.60;;;;;;;;;;5087018;28;20198;-73
2023/05/28 11:40:15;;;;;;;10.03;4.20;;;;;;;;;;5095361;28;20834;-73
2023/05/28 11:42:42;;;;;;;6.10;4.40;;;;;;;;;;5083231;28;20196;-73
2023/05/28 11:45:12;;;;;;;6.77;4.00;;;;;;;;;;5093225;28;20181;-74
2023/05/28 11:47:39;;;;;;;7.70;4.50;;;;;;;;;;5069497;28;20211;-73
2023/05/28 11:50:07;;;;;;;6.30;4.77;;;;;;;;;;5085677;28;20209;-73
2023/05/28 11:52:38;;;;;;;6.47;4.70;;;;;;;;;;5081640;28;20228;-73
2023/05/28 11:55:09;;;;;;;11.77;5.00;;;;;;;;;;5087399;28;20182;-75
2023/05/28 11:57:43;;;;;;;9.37;4.63;;;;;;;;;;5087589;28;20653;-73
2023/05/28 12:00:11;;;;;;;6.60;4.43;;;;;;;;;;5094234;28;20262;-73
2023/05/28 12:02:47;;;;;;;6.10;4.23;;;;;;;;;;5082234;28;20698;-73
2023/05/28 12:05:17;;;;;;;8.40;4.87;;;;;;;;;;5092293;28;20629;-73
2023/05/28 12:07:48;;;;;;;7.57;4.33;;;;;;;;;;5094552;28;20239;-73
2023/05/28 12:10:22;;;;;;;7.47;4.77;;;;;;;;;;5080231;28;20208;-73
2023/05/28 12:12:50;;;;;;;6.80;4.30;;;;;;;;;;5079055;28;20192;-73
2023/05/28 12:15:33;;;;;;;5.10;4.40;;;;;;;;;;5079984;28;20181;-74
2023/05/28 12:18:04;;;;;;;6.40;4.40;;;;;;;;;;5080695;28;20287;-74
2023/05/28 12:20:30;;;;;;;6.53;4.50;;;;;;;;;;5082685;28;20670;-73
2023/05/28 12:23:11;;;;;;;6.50;4.53;;;;;;;;;;5076880;28;20180;-73
2023/05/28 12:25:43;;;;;;;6.03;4.60;;;;;;;;;;5081441;28;20183;-73
2023/05/28 12:28:10;;;;;;;4.77;4.20;;;;;;;;;;5079941;28;20256;-75
2023/05/28 12:30:36;;;;;;;7.70;4.57;;;;;;;;;;5082670;28;20192;-74
2023/05/28 12:33:02;;;;;;;6.87;4.43;;;;;;;;;;5080756;28;20191;-73
2023/05/28 12:35:28;;;;;;;6.70;4.70;;;;;;;;;;5090987;28;20179;-73
2023/05/28 12:37:54;;;;;;;5.13;4.40;;;;;;;;;;5063020;28;20246;-72
2023/05/28 12:40:21;;;;;;;5.80;4.23;;;;;;;;;;5087327;28;20215;-72
2023/05/28 12:42:47;;;;;;;5.97;4.40;;;;;;;;;;5079623;28;20205;-72
2023/05/28 12:45:13;;;;;;;6.13;4.67;;;;;;;;;;5093972;28;20185;-72
2023/05/28 12:47:40;;;;;;;5.57;4.80;;;;;;;;;;5085310;28;20256;-72
2023/05/28 12:50:07;;;;;;;6.33;4.60;;;;;;;;;;5078665;28;20236;-72
2023/05/28 12:52:36;;;;;;;6.20;4.80;;;;;;;;;;5079519;28;20224;-72
2023/05/28 12:55:02;;;;;;;7.07;5.00;;;;;;;;;;5090422;28;20540;-72
2023/05/28 12:57:29;;;;;;;7.87;5.10;;;;;;;;;;5080588;28;20172;-72
2023/05/28 12:59:57;;;;;;;6.03;5.00;;;;;;;;;;5075500;28;20193;-72
2023/05/28 13:02:23;;;;;;;6.03;5.00;;;;;;;;;;5056958;28;20222;-72
2023/05/28 13:04:50;;;;;;;6.07;4.90;;;;;;;;;;5086037;28;20244;-72
2023/05/28 13:07:16;;;;;;;7.63;4.90;;;;;;;;;;5082014;28;20267;-72
2023/05/28 13:09:42;;;;;;;5.20;4.43;;;;;;;;;;5080008;28;20188;-72
2023/05/28 13:12:09;;;;;;;6.90;4.93;;;;;;;;;;5078702;28;20184;-72
2023/05/28 13:14:35;;;;;;;6.70;4.70;;;;;;;;;;5082100;28;20195;-72
2023/05/28 13:17:02;;;;;;;8.50;5.43;;;;;;;;;;5078292;28;20192;-72
2023/05/28 13:19:29;;;;;;;6.87;4.63;;;;;;;;;;5063695;28;20224;-72
2023/05/28 13:21:56;;;;;;;6.10;5.00;;;;;;;;;;5079461;28;20916;-72
2023/05/28 13:24:22;;;;;;;6.57;4.70;;;;;;;;;;5076379;28;20207;-72
2023/05/28 13:26:48;;;;;;;5.67;5.03;;;;;;;;;;5083847;28;20539;-72
2023/05/28 13:29:14;;;;;;;6.67;4.90;;;;;;;;;;5078717;28;20208;-72
2023/05/28 13:31:40;;;;;;;9.53;4.90;;;;;;;;;;5077563;28;20181;-72
2023/05/28 13:34:07;;;;;;;5.60;5.10;;;;;;;;;;5081908;28;20549;-72
2023/05/28 13:36:33;;;;;;;6.50;4.33;;;;;;;;;;5081041;28;20193;-72
2023/05/28 13:38:59;;;;;;;6.07;4.97;;;;;;;;;;5076414;28;20703;-72
2023/05/28 13:41:25;;;;;;;6.23;4.70;;;;;;;;;;5081262;28;20200;-72
2023/05/28 13:43:55;;;;;;;6.00;4.53;;;;;;;;;;5082237;28;20704;-72
2023/05/28 13:46:22;;;;;;;5.50;4.60;;;;;;;;;;5079233;28;20652;-72
2023/05/28 13:48:48;;;;;;;7.93;4.87;;;;;;;;;;5083392;28;20210;-72
2023/05/28 13:51:14;;;;;;;5.90;4.67;;;;;;;;;;5077601;28;20349;-72
2023/05/28 13:53:40;;;;;;;6.60;4.30;;;;;;;;;;5077771;28;20273;-72
2023/05/28 13:56:06;;;;;;;7.30;4.63;;;;;;;;;;5080984;28;20188;-72
2023/05/28 13:58:33;;;;;;;7.10;4.40;;;;;;;;;;5084453;28;20215;-72
2023/05/28 14:01:00;;;;;;;5.43;4.50;;;;;;;;;;5080848;28;20253;-72
2023/05/28 14:03:26;;;;;;;6.00;4.73;;;;;;;;;;5077967;28;20286;-72
2023/05/28 14:05:53;;;;;;;6.22;5.10;;;;;;;;;;5074848;28;20670;-72
2023/05/28 14:08:19;;;;;;;5.23;4.67;;;;;;;;;;5080127;28;21007;-73
2023/05/28 14:10:45;;;;;;;8.43;4.80;;;;;;;;;;5080115;28;20209;-74
2023/05/28 14:13:12;;;;;;;6.35;5.25;;;;;;;;;;5078441;28;20195;-72
2023/05/28 14:15:38;;;;;;;7.57;5.25;;;;;;;;;;5081949;28;20186;-73
2023/05/28 14:18:06;;;;;;;5.27;4.73;;;;;;;;;;5084743;28;20602;-73
2023/05/28 14:20:34;;;;;;;7.17;5.30;;;;;;;;;;5081303;28;20604;-73
2023/05/28 14:23:03;;;;;;;6.90;5.22;;;;;;;;;;5071416;28;20184;-73
2023/05/28 14:25:30;;;;;;;6.47;5.53;;;;;;;;;;5079511;28;20662;-72
2023/05/28 14:27:57;;;;;;;5.65;4.72;;;;;;;;;;5082429;28;20207;-73
2023/05/28 14:30:24;;;;;;;7.63;5.10;;;;;;;;;;5082950;28;20715;-76
2023/05/28 14:32:50;;;;;;;6.13;4.90;;;;;;;;;;5086890;28;20184;-72
2023/05/28 14:35:18;;;;;;;6.03;4.60;;;;;;;;;;5091143;28;20179;-74
2023/05/28 14:37:45;;;;;;;6.45;4.70;;;;;;;;;;5086037;28;20239;-74
2023/05/28 14:40:12;;;;;;;5.45;4.53;;;;;;;;;;5081035;28;20224;-73
2023/05/28 14:42:38;;;;;;;6.28;4.97;;;;;;;;;;5081786;28;20578;-74
2023/05/28 14:45:04;;;;;;;7.83;4.70;;;;;;;;;;5084117;28;20189;-77
2023/05/28 14:47:31;;;;;;;7.32;5.53;;;;;;;;;;5087173;28;20179;-75
2023/05/28 14:49:57;;;;;;;6.38;5.22;;;;;;;;;;5086997;28;20200;-75
2023/05/28 14:52:30;;;;;;;5.45;4.57;;;;;;;;;;5089658;28;20178;-76
2023/05/28 14:54:57;;;;;;;6.80;4.50;;;;;;;;;;5097192;28;20227;-73
2023/05/28 14:57:24;;;;;;;5.55;4.90;;;;;;;;;;5091613;28;20181;-73